Saturday, November 18, 2017, 6:01 PM EST
Back to Local

KHUL, Houlton Int'l Airport

Location: Houlton, ME, United States Lat: 46.117
Local Time: 6:01 PM EST (23:01 GMT) Lon: -67.8
Time Zone: US/Eastern Elev: 492 ft

Show me the last for .
Show Decoded

2017-11-18 16:53 METAR KHUL 182153Z AUTO 00000KT 10SM BKN110 M01/M06 A2973 RMK AO2 SLP075
                 T10061056 =
2017-11-18 15:53 METAR KHUL 182053Z AUTO 00000KT 10SM CLR M01/M05 A2975 RMK AO2 SLP081 T10061050
                 58011 =
2017-11-18 14:53 METAR KHUL 181953Z AUTO 00000KT 10SM CLR 00/M06 A2977 RMK AO2 SLP088 T00001061 =
2017-11-18 13:53 METAR KHUL 181853Z AUTO 00000KT 10SM CLR 00/M06 A2977 RMK AO2 SLP089 T00001061 =
2017-11-18 12:53 METAR KHUL 181753Z AUTO VRB03KT 10SM CLR 01/M07 A2978 RMK AO2 SLP092 T00061067
                 10006 21078 55025 =
2017-11-18 11:53 METAR KHUL 181653Z AUTO 35003KT 10SM BKN100 OVC120 M01/M07 A2977 RMK AO2 SLP088
                 T10111072 =
2017-11-18 10:53 METAR KHUL 181553Z AUTO 35009KT 10SM FEW100 00/M07 A2982 RMK AO2 SLP103
                 T00001072 =
2017-11-18 09:53 METAR KHUL 181453Z AUTO VRB04KT 10SM CLR M02/M08 A2986 RMK AO2 SLP118 T10221083
                 50001 =
2017-11-18 08:53 METAR KHUL 181353Z AUTO 32006KT 10SM CLR M04/M08 A2986 RMK AO2 SLP120 T10391083
                 =
2017-11-18 07:53 METAR KHUL 181253Z AUTO 31007KT 10SM CLR M06/M09 A2986 RMK AO2 SLP118 T10561089
                 =
2017-11-18 06:53 METAR KHUL 181153Z AUTO 27005KT 10SM CLR M08/M09 A2985 RMK AO2 SLP118 70006
                 T10831094 11044 21083 51022 =
2017-11-18 05:53 METAR KHUL 181053Z AUTO 00000KT 10SM CLR M07/M09 A2984 RMK AO2 SLP112 T10671094
                 =
2017-11-18 04:53 METAR KHUL 180953Z AUTO 29005KT 10SM CLR M07/M09 A2982 RMK AO2 SLP107 T10671094
                 =
2017-11-18 03:53 METAR KHUL 180853Z AUTO 33006KT 10SM CLR M06/M09 A2979 RMK AO2 SLP095 T10611094
                 53014 =
2017-11-18 02:53 METAR KHUL 180753Z AUTO 33008KT 10SM CLR M06/M09 A2978 RMK AO2 SLP091 T10561089
                 =
2017-11-18 01:53 METAR KHUL 180653Z AUTO 32009G19KT 10SM FEW024 M05/M09 A2976 RMK AO2 SLP086
                 T10501089 =
2017-11-18 01:27 METAR KHUL 180627Z AUTO 32008G16KT 10SM SCT024 M05/M09 A2976 RMK AO2 T10501089 =
2017-11-18 00:53 METAR KHUL 180553Z AUTO 32011G16KT 10SM OVC026 M04/M08 A2975 RMK AO2 SLP081
                 T10441083 11011 21044 50002 =
2017-11-17 23:53 METAR KHUL 180453Z AUTO 31010G16KT 10SM OVC025 M04/M08 A2978 RMK AO2 SLP090
                 T10391078 400281039 =
2017-11-17 22:53 METAR KHUL 180353Z AUTO 32013G23KT 10SM BKN026 BKN035 M03/M08 A2976 RMK AO2
                 SLP084 T10331078 =
2017-11-17 22:17 METAR KHUL 180317Z AUTO 32009KT 10SM BKN027 OVC037 M03/M07 A2975 RMK AO2
                 T10281072 =
2017-11-17 21:53 METAR KHUL 180253Z AUTO 32011G16KT 10SM BKN031 OVC039 M03/M07 A2974 RMK AO2
                 SLP078 T10281072 50015 =
2017-11-17 21:37 METAR KHUL 180237Z AUTO 32014G24KT 10SM OVC031 M03/M07 A2975 RMK AO2 T10281072 =
2017-11-17 20:53 METAR KHUL 180153Z AUTO 31018G23KT 10SM OVC026 M02/M07 A2974 RMK AO2 SLP078
                 T10221072 =
2017-11-17 19:53 METAR KHUL 180053Z AUTO 30013G19KT 10SM OVC027 M02/M06 A2971 RMK AO2 SLP068
                 T10171061 =
2017-11-17 19:05 METAR KHUL 180005Z AUTO 33010G17KT 10SM OVC029 M01/M06 A2970 RMK AO2 T10111056 =
2017-11-17 18:53 METAR KHUL 172353Z AUTO 33012G19KT 10SM OVC031 M01/M06 A2970 RMK AO2 SLP063
                 T10111056 10011 21011 51023 =

Support USWX by starting your Amazon purchase here.